sensor_id;sensor_type;location;lat;lon;timestamp;P1;durP1;ratioP1;P2;durP2;ratioP2
41217;SDS011;26950;50.960;7.138;2023-04-01T00:01:01;1.83;;;0.47;;
41217;SDS011;26950;50.960;7.138;2023-04-01T00:03:28;5.20;;;0.70;;
41217;SDS011;26950;50.960;7.138;2023-04-01T00:05:55;1.47;;;0.50;;
41217;SDS011;26950;50.960;7.138;2023-04-01T00:08:23;1.33;;;0.47;;
41217;SDS011;26950;50.960;7.138;2023-04-01T00:10:51;3.70;;;0.60;;
41217;SDS011;26950;50.960;7.138;2023-04-01T00:13:18;1.77;;;0.47;;
41217;SDS011;26950;50.960;7.138;2023-04-01T00:15:47;1.93;;;0.50;;
41217;SDS011;26950;50.960;7.138;2023-04-01T00:18:14;2.07;;;0.60;;
41217;SDS011;26950;50.960;7.138;2023-04-01T00:20:43;2.87;;;0.50;;
41217;SDS011;26950;50.960;7.138;2023-04-01T00:23:10;2.27;;;0.50;;
41217;SDS011;26950;50.960;7.138;2023-04-01T00:25:36;2.00;;;0.70;;
41217;SDS011;26950;50.960;7.138;2023-04-01T00:28:03;2.53;;;0.60;;
41217;SDS011;26950;50.960;7.138;2023-04-01T00:30:30;1.67;;;0.50;;
41217;SDS011;26950;50.960;7.138;2023-04-01T00:32:57;1.20;;;0.30;;
41217;SDS011;26950;50.960;7.138;2023-04-01T00:35:24;1.47;;;0.40;;
41217;SDS011;26950;50.960;7.138;2023-04-01T00:37:51;2.90;;;0.40;;
41217;SDS011;26950;50.960;7.138;2023-04-01T00:40:25;1.17;;;0.33;;
41217;SDS011;26950;50.960;7.138;2023-04-01T00:42:55;1.87;;;0.50;;
41217;SDS011;26950;50.960;7.138;2023-04-01T00:45:26;1.97;;;0.40;;
41217;SDS011;26950;50.960;7.138;2023-04-01T00:47:59;2.10;;;0.40;;
41217;SDS011;26950;50.960;7.138;2023-04-01T00:50:30;2.27;;;0.57;;
41217;SDS011;26950;50.960;7.138;2023-04-01T00:52:58;1.90;;;0.60;;
41217;SDS011;26950;50.960;7.138;2023-04-01T00:55:26;0.30;;;0.30;;
41217;SDS011;26950;50.960;7.138;2023-04-01T00:57:55;1.57;;;0.40;;
41217;SDS011;26950;50.960;7.138;2023-04-01T01:00:25;0.80;;;0.37;;
41217;SDS011;26950;50.960;7.138;2023-04-01T01:02:52;2.53;;;0.50;;
41217;SDS011;26950;50.960;7.138;2023-04-01T01:05:20;1.70;;;0.90;;
41217;SDS011;26950;50.960;7.138;2023-04-01T01:07:57;3.53;;;0.70;;
41217;SDS011;26950;50.960;7.138;2023-04-01T01:10:30;1.57;;;0.50;;
41217;SDS011;26950;50.960;7.138;2023-04-01T01:13:01;2.57;;;0.37;;
41217;SDS011;26950;50.960;7.138;2023-04-01T01:15:36;2.90;;;0.40;;
41217;SDS011;26950;50.960;7.138;2023-04-01T01:18:09;2.43;;;0.30;;
41217;SDS011;26950;50.960;7.138;2023-04-01T01:20:52;1.03;;;0.40;;
41217;SDS011;26950;50.960;7.138;2023-04-01T01:26:29;1.63;;;0.57;;
41217;SDS011;26950;50.960;7.138;2023-04-01T01:32:38;1.90;;;0.40;;
41217;SDS011;26950;50.960;7.138;2023-04-01T01:35:22;1.90;;;0.33;;
41217;SDS011;26950;50.960;7.138;2023-04-01T01:37:50;1.20;;;0.30;;
41217;SDS011;26950;50.960;7.138;2023-04-01T01:40:21;1.03;;;0.30;;
41217;SDS011;26950;50.960;7.138;2023-04-01T01:42:50;1.63;;;0.47;;
41217;SDS011;26950;50.960;7.138;2023-04-01T01:45:21;0.73;;;0.30;;
41217;SDS011;26950;50.960;7.138;2023-04-01T01:47:51;0.77;;;0.30;;
41217;SDS011;26950;50.960;7.138;2023-04-01T01:50:18;1.17;;;0.40;;
41217;SDS011;26950;50.960;7.138;2023-04-01T01:52:47;0.33;;;0.30;;
41217;SDS011;26950;50.960;7.138;2023-04-01T01:55:23;0.37;;;0.27;;
41217;SDS011;26950;50.960;7.138;2023-04-01T01:57:53;1.77;;;0.47;;
41217;SDS011;26950;50.960;7.138;2023-04-01T02:00:22;0.93;;;0.50;;
41217;SDS011;26950;50.960;7.138;2023-04-01T02:02:48;0.60;;;0.30;;
41217;SDS011;26950;50.960;7.138;2023-04-01T02:05:17;3.43;;;0.60;;
41217;SDS011;26950;50.960;7.138;2023-04-01T02:07:48;1.50;;;0.50;;
41217;SDS011;26950;50.960;7.138;2023-04-01T02:10:22;2.20;;;0.50;;
41217;SDS011;26950;50.960;7.138;2023-04-01T02:12:51;0.97;;;0.20;;
41217;SDS011;26950;50.960;7.138;2023-04-01T02:15:22;0.93;;;0.40;;
41217;SDS011;26950;50.960;7.138;2023-04-01T02:17:55;0.70;;;0.30;;
41217;SDS011;26950;50.960;7.138;2023-04-01T02:20:23;1.13;;;0.30;;
41217;SDS011;26950;50.960;7.138;2023-04-01T02:22:51;1.10;;;0.30;;
41217;SDS011;26950;50.960;7.138;2023-04-01T02:25:22;1.23;;;0.27;;
41217;SDS011;26950;50.960;7.138;2023-04-01T02:27:51;3.93;;;0.30;;
41217;SDS011;26950;50.960;7.138;2023-04-01T02:30:19;1.33;;;0.30;;
41217;SDS011;26950;50.960;7.138;2023-04-01T02:32:47;0.57;;;0.30;;
41217;SDS011;26950;50.960;7.138;2023-04-01T02:35:16;0.93;;;0.30;;
41217;SDS011;26950;50.960;7.138;2023-04-01T02:37:43;1.57;;;0.40;;
41217;SDS011;26950;50.960;7.138;2023-04-01T02:40:15;2.63;;;0.50;;
41217;SDS011;26950;50.960;7.138;2023-04-01T02:42:42;2.23;;;0.47;;
41217;SDS011;26950;50.960;7.138;2023-04-01T02:45:09;4.23;;;0.40;;
41217;SDS011;26950;50.960;7.138;2023-04-01T02:47:37;1.13;;;0.30;;
41217;SDS011;26950;50.960;7.138;2023-04-01T02:50:04;0.80;;;0.20;;
41217;SDS011;26950;50.960;7.138;2023-04-01T02:52:31;0.57;;;0.30;;
41217;SDS011;26950;50.960;7.138;2023-04-01T02:54:58;0.40;;;0.30;;
41217;SDS011;26950;50.960;7.138;2023-04-01T02:57:26;2.53;;;0.30;;
41217;SDS011;26950;50.960;7.138;2023-04-01T02:59:52;2.13;;;0.40;;
41217;SDS011;26950;50.960;7.138;2023-04-01T03:02:19;1.23;;;0.47;;
41217;SDS011;26950;50.960;7.138;2023-04-01T03:04:45;1.97;;;0.20;;
41217;SDS011;26950;50.960;7.138;2023-04-01T03:07:12;0.50;;;0.23;;
41217;SDS011;26950;50.960;7.138;2023-04-01T03:09:39;0.50;;;0.20;;
41217;SDS011;26950;50.960;7.138;2023-04-01T03:12:05;0.30;;;0.30;;
41217;SDS011;26950;50.960;7.138;2023-04-01T03:14:33;1.17;;;0.30;;
41217;SDS011;26950;50.960;7.138;2023-04-01T03:17:00;0.77;;;0.30;;
41217;SDS011;26950;50.960;7.138;2023-04-01T03:19:26;2.77;;;0.50;;
41217;SDS011;26950;50.960;7.138;2023-04-01T03:21:53;2.30;;;0.30;;
41217;SDS011;26950;50.960;7.138;2023-04-01T03:24:19;2.20;;;0.40;;
41217;SDS011;26950;50.960;7.138;2023-04-01T03:26:46;0.93;;;0.20;;
41217;SDS011;26950;50.960;7.138;2023-04-01T03:29:13;2.10;;;0.30;;
41217;SDS011;26950;50.960;7.138;2023-04-01T03:31:42;1.33;;;0.40;;
41217;SDS011;26950;50.960;7.138;2023-04-01T03:34:08;1.20;;;0.20;;
41217;SDS011;26950;50.960;7.138;2023-04-01T03:36:35;0.77;;;0.30;;
41217;SDS011;26950;50.960;7.138;2023-04-01T03:39:02;0.53;;;0.30;;
41217;SDS011;26950;50.960;7.138;2023-04-01T03:41:29;2.00;;;0.30;;
41217;SDS011;26950;50.960;7.138;2023-04-01T03:43:56;1.27;;;0.30;;
41217;SDS011;26950;50.960;7.138;2023-04-01T03:46:22;1.33;;;0.30;;
41217;SDS011;26950;50.960;7.138;2023-04-01T03:48:50;2.50;;;0.47;;
41217;SDS011;26950;50.960;7.138;2023-04-01T03:51:17;1.77;;;0.30;;
41217;SDS011;26950;50.960;7.138;2023-04-01T03:53:43;0.30;;;0.20;;
41217;SDS011;26950;50.960;7.138;2023-04-01T03:56:10;1.00;;;0.40;;
41217;SDS011;26950;50.960;7.138;2023-04-01T03:58:37;1.20;;;0.20;;
41217;SDS011;26950;50.960;7.138;2023-04-01T04:01:12;0.83;;;0.30;;
41217;SDS011;26950;50.960;7.138;2023-04-01T04:03:40;0.33;;;0.27;;
41217;SDS011;26950;50.960;7.138;2023-04-01T04:06:10;1.37;;;0.23;;
41217;SDS011;26950;50.960;7.138;2023-04-01T04:08:38;1.17;;;0.37;;
41217;SDS011;26950;50.960;7.138;2023-04-01T04:11:05;1.03;;;0.20;;
41217;SDS011;26950;50.960;7.138;2023-04-01T04:13:31;1.93;;;0.30;;
41217;SDS011;26950;50.960;7.138;2023-04-01T04:15:58;2.20;;;0.20;;
41217;SDS011;26950;50.960;7.138;2023-04-01T04:18:24;0.97;;;0.20;;
41217;SDS011;26950;50.960;7.138;2023-04-01T04:20:51;1.40;;;0.23;;
41217;SDS011;26950;50.960;7.138;2023-04-01T04:23:19;0.27;;;0.27;;
41217;SDS011;26950;50.960;7.138;2023-04-01T04:25:52;0.57;;;0.30;;
41217;SDS011;26950;50.960;7.138;2023-04-01T04:28:20;0.67;;;0.27;;
41217;SDS011;26950;50.960;7.138;2023-04-01T04:30:47;1.53;;;0.40;;
41217;SDS011;26950;50.960;7.138;2023-04-01T04:33:13;1.17;;;0.20;;
41217;SDS011;26950;50.960;7.138;2023-04-01T04:35:40;1.13;;;0.40;;
41217;SDS011;26950;50.960;7.138;2023-04-01T04:38:06;1.90;;;0.40;;
41217;SDS011;26950;50.960;7.138;2023-04-01T04:40:34;0.40;;;0.30;;
41217;SDS011;26950;50.960;7.138;2023-04-01T04:43:02;2.00;;;0.30;;
41217;SDS011;26950;50.960;7.138;2023-04-01T04:45:29;0.37;;;0.20;;
41217;SDS011;26950;50.960;7.138;2023-04-01T04:47:56;0.67;;;0.27;;
41217;SDS011;26950;50.960;7.138;2023-04-01T04:50:22;0.60;;;0.30;;
41217;SDS011;26950;50.960;7.138;2023-04-01T04:52:49;0.70;;;0.27;;
41217;SDS011;26950;50.960;7.138;2023-04-01T04:55:16;1.07;;;0.20;;
41217;SDS011;26950;50.960;7.138;2023-04-01T04:57:44;0.57;;;0.20;;
41217;SDS011;26950;50.960;7.138;2023-04-01T05:00:11;0.70;;;0.30;;
41217;SDS011;26950;50.960;7.138;2023-04-01T05:02:38;0.63;;;0.30;;
41217;SDS011;26950;50.960;7.138;2023-04-01T05:05:05;1.43;;;0.40;;
41217;SDS011;26950;50.960;7.138;2023-04-01T05:07:32;0.40;;;0.30;;
41217;SDS011;26950;50.960;7.138;2023-04-01T05:09:59;0.20;;;0.20;;
41217;SDS011;26950;50.960;7.138;2023-04-01T05:12:26;0.93;;;0.20;;
41217;SDS011;26950;50.960;7.138;2023-04-01T05:14:54;0.37;;;0.20;;
41217;SDS011;26950;50.960;7.138;2023-04-01T05:17:20;0.40;;;0.27;;
41217;SDS011;26950;50.960;7.138;2023-04-01T05:19:47;0.97;;;0.33;;
41217;SDS011;26950;50.960;7.138;2023-04-01T05:22:13;1.00;;;0.30;;
41217;SDS011;26950;50.960;7.138;2023-04-01T05:24:40;4.43;;;0.40;;
41217;SDS011;26950;50.960;7.138;2023-04-01T05:27:06;0.37;;;0.20;;
41217;SDS011;26950;50.960;7.138;2023-04-01T05:29:33;2.37;;;0.30;;
41217;SDS011;26950;50.960;7.138;2023-04-01T05:32:01;1.03;;;0.30;;
41217;SDS011;26950;50.960;7.138;2023-04-01T05:34:27;0.50;;;0.23;;
41217;SDS011;26950;50.960;7.138;2023-04-01T05:36:54;0.37;;;0.30;;
41217;SDS011;26950;50.960;7.138;2023-04-01T05:39:20;0.37;;;0.20;;
41217;SDS011;26950;50.960;7.138;2023-04-01T05:41:48;0.87;;;0.30;;
41217;SDS011;26950;50.960;7.138;2023-04-01T05:44:15;2.20;;;0.50;;
41217;SDS011;26950;50.960;7.138;2023-04-01T05:46:41;0.80;;;0.20;;
41217;SDS011;26950;50.960;7.138;2023-04-01T05:49:09;1.17;;;0.37;;
41217;SDS011;26950;50.960;7.138;2023-04-01T05:51:35;2.03;;;0.40;;
41217;SDS011;26950;50.960;7.138;2023-04-01T05:54:03;1.43;;;0.30;;
41217;SDS011;26950;50.960;7.138;2023-04-01T05:56:30;0.77;;;0.30;;
41217;SDS011;26950;50.960;7.138;2023-04-01T05:58:57;0.60;;;0.30;;
41217;SDS011;26950;50.960;7.138;2023-04-01T06:01:23;1.77;;;0.37;;
41217;SDS011;26950;50.960;7.138;2023-04-01T06:03:50;0.60;;;0.30;;
41217;SDS011;26950;50.960;7.138;2023-04-01T06:06:19;1.03;;;0.40;;
41217;SDS011;26950;50.960;7.138;2023-04-01T06:08:49;0.97;;;0.40;;
41217;SDS011;26950;50.960;7.138;2023-04-01T06:11:18;0.40;;;0.30;;
41217;SDS011;26950;50.960;7.138;2023-04-01T06:13:59;1.90;;;0.50;;
41217;SDS011;26950;50.960;7.138;2023-04-01T06:16:36;1.10;;;0.50;;
41217;SDS011;26950;50.960;7.138;2023-04-01T06:19:13;1.90;;;0.60;;
41217;SDS011;26950;50.960;7.138;2023-04-01T06:21:59;0.97;;;0.50;;
41217;SDS011;26950;50.960;7.138;2023-04-01T06:24:43;0.97;;;0.43;;
41217;SDS011;26950;50.960;7.138;2023-04-01T06:27:21;1.63;;;0.70;;
41217;SDS011;26950;50.960;7.138;2023-04-01T06:30:02;1.97;;;0.57;;
41217;SDS011;26950;50.960;7.138;2023-04-01T06:32:54;2.17;;;0.50;;
41217;SDS011;26950;50.960;7.138;2023-04-01T06:35:38;3.13;;;0.50;;
41217;SDS011;26950;50.960;7.138;2023-04-01T06:38:32;2.83;;;0.63;;
41217;SDS011;26950;50.960;7.138;2023-04-01T06:44:23;2.30;;;0.67;;
41217;SDS011;26950;50.960;7.138;2023-04-01T06:46:59;2.97;;;0.80;;
41217;SDS011;26950;50.960;7.138;2023-04-01T06:49:41;1.23;;;0.50;;
41217;SDS011;26950;50.960;7.138;2023-04-01T06:52:17;2.33;;;0.70;;
41217;SDS011;26950;50.960;7.138;2023-04-01T06:54:51;2.23;;;0.77;;
41217;SDS011;26950;50.960;7.138;2023-04-01T06:57:23;2.43;;;0.90;;
41217;SDS011;26950;50.960;7.138;2023-04-01T06:59:57;1.40;;;0.60;;
41217;SDS011;26950;50.960;7.138;2023-04-01T07:02:26;2.23;;;0.90;;
41217;SDS011;26950;50.960;7.138;2023-04-01T07:04:59;5.10;;;1.00;;
41217;SDS011;26950;50.960;7.138;2023-04-01T07:07:29;3.23;;;1.17;;
41217;SDS011;26950;50.960;7.138;2023-04-01T07:10:04;4.47;;;0.80;;
41217;SDS011;26950;50.960;7.138;2023-04-01T07:12:38;1.87;;;0.80;;
41217;SDS011;26950;50.960;7.138;2023-04-01T07:15:14;3.43;;;1.10;;
41217;SDS011;26950;50.960;7.138;2023-04-01T07:17:45;2.73;;;0.80;;
41217;SDS011;26950;50.960;7.138;2023-04-01T07:20:16;2.47;;;0.73;;
41217;SDS011;26950;50.960;7.138;2023-04-01T07:22:46;1.50;;;0.90;;
41217;SDS011;26950;50.960;7.138;2023-04-01T07:25:17;3.67;;;1.17;;
41217;SDS011;26950;50.960;7.138;2023-04-01T07:27:46;1.97;;;1.00;;
41217;SDS011;26950;50.960;7.138;2023-04-01T07:30:13;2.80;;;1.00;;
41217;SDS011;26950;50.960;7.138;2023-04-01T07:32:42;2.23;;;1.00;;
41217;SDS011;26950;50.960;7.138;2023-04-01T07:35:16;3.73;;;1.27;;
41217;SDS011;26950;50.960;7.138;2023-04-01T07:37:52;1.93;;;1.00;;
41217;SDS011;26950;50.960;7.138;2023-04-01T07:40:32;2.17;;;0.90;;
41217;SDS011;26950;50.960;7.138;2023-04-01T07:43:09;1.03;;;0.90;;
41217;SDS011;26950;50.960;7.138;2023-04-01T07:45:51;2.80;;;1.13;;
41217;SDS011;26950;50.960;7.138;2023-04-01T07:48:26;3.03;;;1.17;;
41217;SDS011;26950;50.960;7.138;2023-04-01T07:51:00;2.17;;;1.10;;
41217;SDS011;26950;50.960;7.138;2023-04-01T07:53:30;1.57;;;0.73;;
41217;SDS011;26950;50.960;7.138;2023-04-01T07:56:06;2.23;;;0.80;;
41217;SDS011;26950;50.960;7.138;2023-04-01T07:58:36;1.20;;;0.80;;
41217;SDS011;26950;50.960;7.138;2023-04-01T08:01:14;2.63;;;1.00;;
41217;SDS011;26950;50.960;7.138;2023-04-01T08:03:53;5.40;;;1.03;;
41217;SDS011;26950;50.960;7.138;2023-04-01T08:06:33;2.97;;;0.77;;
41217;SDS011;26950;50.960;7.138;2023-04-01T08:09:09;1.27;;;0.80;;
41217;SDS011;26950;50.960;7.138;2023-04-01T08:11:43;0.73;;;0.73;;
41217;SDS011;26950;50.960;7.138;2023-04-01T08:14:21;3.00;;;0.83;;
41217;SDS011;26950;50.960;7.138;2023-04-01T08:16:57;2.03;;;0.70;;
41217;SDS011;26950;50.960;7.138;2023-04-01T08:19:31;0.97;;;0.80;;
41217;SDS011;26950;50.960;7.138;2023-04-01T08:22:08;1.30;;;0.70;;
41217;SDS011;26950;50.960;7.138;2023-04-01T08:24:43;3.57;;;0.80;;
41217;SDS011;26950;50.960;7.138;2023-04-01T08:27:15;1.80;;;0.90;;
41217;SDS011;26950;50.960;7.138;2023-04-01T08:29:47;1.57;;;0.80;;
41217;SDS011;26950;50.960;7.138;2023-04-01T08:32:20;2.20;;;0.80;;
41217;SDS011;26950;50.960;7.138;2023-04-01T08:34:55;2.27;;;0.70;;
41217;SDS011;26950;50.960;7.138;2023-04-01T08:37:28;0.73;;;0.70;;
41217;SDS011;26950;50.960;7.138;2023-04-01T08:39:58;0.70;;;0.70;;
41217;SDS011;26950;50.960;7.138;2023-04-01T08:42:50;1.47;;;0.97;;
41217;SDS011;26950;50.960;7.138;2023-04-01T08:45:38;0.80;;;0.70;;
41217;SDS011;26950;50.960;7.138;2023-04-01T08:48:22;1.20;;;0.70;;
41217;SDS011;26950;50.960;7.138;2023-04-01T08:51:14;3.93;;;0.70;;
41217;SDS011;26950;50.960;7.138;2023-04-01T08:54:09;3.43;;;1.80;;
41217;SDS011;26950;50.960;7.138;2023-04-01T08:56:55;1.77;;;0.80;;
41217;SDS011;26950;50.960;7.138;2023-04-01T08:59:40;1.17;;;0.80;;
41217;SDS011;26950;50.960;7.138;2023-04-01T09:02:25;1.73;;;0.77;;
41217;SDS011;26950;50.960;7.138;2023-04-01T09:05:17;1.17;;;0.70;;
41217;SDS011;26950;50.960;7.138;2023-04-01T09:08:13;0.80;;;0.63;;
41217;SDS011;26950;50.960;7.138;2023-04-01T09:10:54;1.43;;;0.80;;
41217;SDS011;26950;50.960;7.138;2023-04-01T09:13:38;1.07;;;0.50;;
41217;SDS011;26950;50.960;7.138;2023-04-01T09:16:24;1.30;;;0.60;;
41217;SDS011;26950;50.960;7.138;2023-04-01T09:19:15;1.80;;;0.87;;
41217;SDS011;26950;50.960;7.138;2023-04-01T09:21:55;1.83;;;0.70;;
41217;SDS011;26950;50.960;7.138;2023-04-01T09:27:41;0.97;;;0.33;;
41217;SDS011;26950;50.960;7.138;2023-04-01T09:33:09;0.90;;;0.40;;
41217;SDS011;26950;50.960;7.138;2023-04-01T09:36:03;0.70;;;0.50;;
41217;SDS011;26950;50.960;7.138;2023-04-01T09:38:37;1.40;;;0.50;;
41217;SDS011;26950;50.960;7.138;2023-04-01T09:41:17;1.77;;;0.33;;
41217;SDS011;26950;50.960;7.138;2023-04-01T09:43:57;0.73;;;0.50;;
41217;SDS011;26950;50.960;7.138;2023-04-01T09:46:31;0.50;;;0.50;;
41217;SDS011;26950;50.960;7.138;2023-04-01T09:49:23;0.70;;;0.43;;
41217;SDS011;26950;50.960;7.138;2023-04-01T09:52:09;0.80;;;0.50;;
41217;SDS011;26950;50.960;7.138;2023-04-01T09:54:56;2.77;;;0.60;;
41217;SDS011;26950;50.960;7.138;2023-04-01T10:04:07;0.70;;;0.70;;
41217;SDS011;26950;50.960;7.138;2023-04-01T10:10:19;1.50;;;0.70;;
41217;SDS011;26950;50.960;7.138;2023-04-01T10:16:18;1.50;;;0.90;;
41217;SDS011;26950;50.960;7.138;2023-04-01T10:19:08;1.97;;;0.73;;
41217;SDS011;26950;50.960;7.138;2023-04-01T10:22:04;1.20;;;0.80;;
41217;SDS011;26950;50.960;7.138;2023-04-01T10:24:56;1.00;;;0.90;;
41217;SDS011;26950;50.960;7.138;2023-04-01T10:27:47;0.90;;;0.77;;
41217;SDS011;26950;50.960;7.138;2023-04-01T10:33:36;0.80;;;0.80;;
41217;SDS011;26950;50.960;7.138;2023-04-01T10:36:21;1.20;;;0.73;;
41217;SDS011;26950;50.960;7.138;2023-04-01T10:39:12;1.33;;;0.90;;
41217;SDS011;26950;50.960;7.138;2023-04-01T10:48:07;2.83;;;1.07;;
41217;SDS011;26950;50.960;7.138;2023-04-01T10:50:55;1.40;;;0.97;;
41217;SDS011;26950;50.960;7.138;2023-04-01T10:53:36;0.90;;;0.80;;
41217;SDS011;26950;50.960;7.138;2023-04-01T11:02:44;1.27;;;1.00;;
41217;SDS011;26950;50.960;7.138;2023-04-01T11:06:02;1.10;;;1.00;;
41217;SDS011;26950;50.960;7.138;2023-04-01T11:15:37;7.80;;;1.40;;
41217;SDS011;26950;50.960;7.138;2023-04-01T11:21:27;1.60;;;1.10;;
41217;SDS011;26950;50.960;7.138;2023-04-01T11:24:24;1.63;;;1.17;;
41217;SDS011;26950;50.960;7.138;2023-04-01T11:27:16;1.90;;;1.03;;
41217;SDS011;26950;50.960;7.138;2023-04-01T11:32:50;1.53;;;1.10;;
41217;SDS011;26950;50.960;7.138;2023-04-01T11:38:31;2.43;;;1.10;;
41217;SDS011;26950;50.960;7.138;2023-04-01T11:41:13;1.30;;;1.10;;
41217;SDS011;26950;50.960;7.138;2023-04-01T11:43:50;1.20;;;1.00;;
41217;SDS011;26950;50.960;7.138;2023-04-01T11:46:31;1.70;;;1.10;;
41217;SDS011;26950;50.960;7.138;2023-04-01T11:49:05;1.97;;;1.10;;
41217;SDS011;26950;50.960;7.138;2023-04-01T11:51:54;1.03;;;0.93;;
41217;SDS011;26950;50.960;7.138;2023-04-01T11:54:35;2.33;;;1.00;;
41217;SDS011;26950;50.960;7.138;2023-04-01T11:57:20;1.00;;;0.90;;
41217;SDS011;26950;50.960;7.138;2023-04-01T12:00:25;1.10;;;1.00;;
41217;SDS011;26950;50.960;7.138;2023-04-01T12:03:10;0.90;;;0.80;;
41217;SDS011;26950;50.960;7.138;2023-04-01T12:05:52;1.40;;;1.20;;
41217;SDS011;26950;50.960;7.138;2023-04-01T12:08:27;2.63;;;1.20;;
41217;SDS011;26950;50.960;7.138;2023-04-01T12:11:07;1.03;;;0.90;;
41217;SDS011;26950;50.960;7.138;2023-04-01T12:13:42;1.30;;;1.00;;
41217;SDS011;26950;50.960;7.138;2023-04-01T12:16:21;1.63;;;1.20;;
41217;SDS011;26950;50.960;7.138;2023-04-01T12:19:03;1.00;;;1.00;;
41217;SDS011;26950;50.960;7.138;2023-04-01T12:21:36;0.70;;;0.70;;
41217;SDS011;26950;50.960;7.138;2023-04-01T12:27:04;0.90;;;0.80;;
41217;SDS011;26950;50.960;7.138;2023-04-01T12:29:50;1.33;;;1.10;;
41217;SDS011;26950;50.960;7.138;2023-04-01T12:32:29;1.10;;;1.00;;
41217;SDS011;26950;50.960;7.138;2023-04-01T12:35:13;1.20;;;1.10;;
41217;SDS011;26950;50.960;7.138;2023-04-01T12:37:46;1.07;;;0.97;;
41217;SDS011;26950;50.960;7.138;2023-04-01T12:40:24;1.50;;;0.93;;
41217;SDS011;26950;50.960;7.138;2023-04-01T12:46:05;1.10;;;1.00;;
41217;SDS011;26950;50.960;7.138;2023-04-01T12:48:47;2.03;;;0.90;;
41217;SDS011;26950;50.960;7.138;2023-04-01T12:51:41;1.20;;;1.00;;
41217;SDS011;26950;50.960;7.138;2023-04-01T12:54:26;1.00;;;0.90;;
41217;SDS011;26950;50.960;7.138;2023-04-01T12:57:18;1.57;;;0.90;;
41217;SDS011;26950;50.960;7.138;2023-04-01T13:00:03;1.10;;;0.90;;
41217;SDS011;26950;50.960;7.138;2023-04-01T13:02:49;1.33;;;0.87;;
41217;SDS011;26950;50.960;7.138;2023-04-01T13:05:34;1.37;;;0.90;;
41217;SDS011;26950;50.960;7.138;2023-04-01T13:08:23;1.27;;;0.93;;
41217;SDS011;26950;50.960;7.138;2023-04-01T13:13:58;1.33;;;0.90;;
41217;SDS011;26950;50.960;7.138;2023-04-01T13:16:37;1.00;;;0.90;;
41217;SDS011;26950;50.960;7.138;2023-04-01T13:19:08;1.63;;;0.90;;
41217;SDS011;26950;50.960;7.138;2023-04-01T13:21:43;0.90;;;0.90;;
41217;SDS011;26950;50.960;7.138;2023-04-01T13:24:23;1.63;;;0.90;;
41217;SDS011;26950;50.960;7.138;2023-04-01T13:26:58;1.43;;;1.10;;
41217;SDS011;26950;50.960;7.138;2023-04-01T13:29:31;1.10;;;1.00;;
41217;SDS011;26950;50.960;7.138;2023-04-01T13:32:05;1.03;;;0.93;;
41217;SDS011;26950;50.960;7.138;2023-04-01T13:34:51;1.47;;;1.10;;
41217;SDS011;26950;50.960;7.138;2023-04-01T13:37:30;1.13;;;1.00;;
41217;SDS011;26950;50.960;7.138;2023-04-01T13:40:26;1.83;;;1.20;;
41217;SDS011;26950;50.960;7.138;2023-04-01T13:43:02;1.10;;;1.00;;
41217;SDS011;26950;50.960;7.138;2023-04-01T13:45:38;1.40;;;1.30;;
41217;SDS011;26950;50.960;7.138;2023-04-01T13:48:26;2.13;;;1.10;;
41217;SDS011;26950;50.960;7.138;2023-04-01T13:51:08;1.50;;;1.13;;
41217;SDS011;26950;50.960;7.138;2023-04-01T13:56:42;2.17;;;1.20;;
41217;SDS011;26950;50.960;7.138;2023-04-01T13:59:29;1.30;;;1.20;;
41217;SDS011;26950;50.960;7.138;2023-04-01T14:02:13;1.60;;;1.30;;
41217;SDS011;26950;50.960;7.138;2023-04-01T14:04:56;1.70;;;1.20;;
41217;SDS011;26950;50.960;7.138;2023-04-01T14:07:40;1.63;;;1.53;;
41217;SDS011;26950;50.960;7.138;2023-04-01T14:10:19;1.60;;;1.50;;
41217;SDS011;26950;50.960;7.138;2023-04-01T14:12:55;2.30;;;1.50;;
41217;SDS011;26950;50.960;7.138;2023-04-01T14:15:29;1.90;;;1.50;;
41217;SDS011;26950;50.960;7.138;2023-04-01T14:18:09;1.60;;;1.50;;
41217;SDS011;26950;50.960;7.138;2023-04-01T14:20:47;1.67;;;1.57;;
41217;SDS011;26950;50.960;7.138;2023-04-01T14:23:25;2.07;;;1.57;;
41217;SDS011;26950;50.960;7.138;2023-04-01T14:26:16;2.67;;;1.80;;
41217;SDS011;26950;50.960;7.138;2023-04-01T14:28:54;1.90;;;1.70;;
41217;SDS011;26950;50.960;7.138;2023-04-01T14:31:31;2.07;;;1.80;;
41217;SDS011;26950;50.960;7.138;2023-04-01T14:34:10;3.07;;;1.83;;
41217;SDS011;26950;50.960;7.138;2023-04-01T14:39:54;2.00;;;1.80;;
41217;SDS011;26950;50.960;7.138;2023-04-01T14:42:36;2.13;;;1.90;;
41217;SDS011;26950;50.960;7.138;2023-04-01T14:45:19;2.00;;;1.80;;
41217;SDS011;26950;50.960;7.138;2023-04-01T14:48:05;2.70;;;2.00;;
41217;SDS011;26950;50.960;7.138;2023-04-01T14:50:44;2.70;;;1.77;;
41217;SDS011;26950;50.960;7.138;2023-04-01T14:53:13;3.70;;;1.93;;
41217;SDS011;26950;50.960;7.138;2023-04-01T14:55:53;2.57;;;1.93;;
41217;SDS011;26950;50.960;7.138;2023-04-01T14:58:22;3.10;;;1.67;;
41217;SDS011;26950;50.960;7.138;2023-04-01T15:00:55;4.37;;;2.20;;
41217;SDS011;26950;50.960;7.138;2023-04-01T15:03:33;2.80;;;1.90;;
41217;SDS011;26950;50.960;7.138;2023-04-01T15:06:16;3.60;;;2.10;;
41217;SDS011;26950;50.960;7.138;2023-04-01T15:09:00;2.50;;;1.93;;
41217;SDS011;26950;50.960;7.138;2023-04-01T15:11:40;3.00;;;2.30;;
41217;SDS011;26950;50.960;7.138;2023-04-01T15:14:24;3.03;;;2.73;;
41217;SDS011;26950;50.960;7.138;2023-04-01T15:17:05;2.30;;;1.93;;
41217;SDS011;26950;50.960;7.138;2023-04-01T15:19:55;2.97;;;2.10;;
41217;SDS011;26950;50.960;7.138;2023-04-01T15:22:40;2.97;;;2.27;;
41217;SDS011;26950;50.960;7.138;2023-04-01T15:25:20;3.07;;;2.07;;
41217;SDS011;26950;50.960;7.138;2023-04-01T15:27:59;2.87;;;1.80;;
41217;SDS011;26950;50.960;7.138;2023-04-01T15:30:35;2.10;;;1.90;;
41217;SDS011;26950;50.960;7.138;2023-04-01T15:33:14;3.53;;;2.03;;
41217;SDS011;26950;50.960;7.138;2023-04-01T15:35:49;8.73;;;5.63;;
41217;SDS011;26950;50.960;7.138;2023-04-01T15:38:26;2.17;;;1.97;;
41217;SDS011;26950;50.960;7.138;2023-04-01T15:41:02;2.10;;;1.70;;
41217;SDS011;26950;50.960;7.138;2023-04-01T15:43:40;3.77;;;2.30;;
41217;SDS011;26950;50.960;7.138;2023-04-01T15:46:20;2.97;;;2.20;;
41217;SDS011;26950;50.960;7.138;2023-04-01T15:49:15;2.20;;;1.97;;
41217;SDS011;26950;50.960;7.138;2023-04-01T15:55:00;3.23;;;2.40;;
41217;SDS011;26950;50.960;7.138;2023-04-01T15:57:45;3.83;;;2.40;;
41217;SDS011;26950;50.960;7.138;2023-04-01T16:00:22;2.57;;;2.03;;
41217;SDS011;26950;50.960;7.138;2023-04-01T16:02:54;2.63;;;2.00;;
41217;SDS011;26950;50.960;7.138;2023-04-01T16:05:52;3.07;;;2.37;;
41217;SDS011;26950;50.960;7.138;2023-04-01T16:08:37;3.93;;;2.33;;
41217;SDS011;26950;50.960;7.138;2023-04-01T16:11:22;2.40;;;2.20;;
41217;SDS011;26950;50.960;7.138;2023-04-01T16:13:59;3.17;;;2.80;;
41217;SDS011;26950;50.960;7.138;2023-04-01T16:16:41;3.57;;;2.37;;
41217;SDS011;26950;50.960;7.138;2023-04-01T16:19:22;3.53;;;2.50;;
41217;SDS011;26950;50.960;7.138;2023-04-01T16:22:12;2.70;;;2.50;;
41217;SDS011;26950;50.960;7.138;2023-04-01T16:24:44;2.67;;;2.47;;
41217;SDS011;26950;50.960;7.138;2023-04-01T16:27:18;2.47;;;2.27;;
41217;SDS011;26950;50.960;7.138;2023-04-01T16:29:51;2.90;;;2.40;;
41217;SDS011;26950;50.960;7.138;2023-04-01T16:32:28;5.17;;;2.60;;
41217;SDS011;26950;50.960;7.138;2023-04-01T16:35:05;4.20;;;2.80;;
41217;SDS011;26950;50.960;7.138;2023-04-01T16:37:47;3.37;;;2.90;;
41217;SDS011;26950;50.960;7.138;2023-04-01T16:40:22;3.10;;;2.70;;
41217;SDS011;26950;50.960;7.138;2023-04-01T16:43:05;4.57;;;2.80;;
41217;SDS011;26950;50.960;7.138;2023-04-01T16:45:37;5.20;;;2.90;;
41217;SDS011;26950;50.960;7.138;2023-04-01T16:48:12;3.10;;;2.80;;
41217;SDS011;26950;50.960;7.138;2023-04-01T16:50:48;5.30;;;2.70;;
41217;SDS011;26950;50.960;7.138;2023-04-01T16:53:24;5.33;;;3.00;;
41217;SDS011;26950;50.960;7.138;2023-04-01T16:56:04;3.00;;;2.70;;